Washoe, Nevada
Current Conditions -  °F | °C
As of 4:15 PM on Saturday 20 Dec 2014 (Local Time) from KCXP Reporting Station
Scattered Clouds Scattered Clouds  
Wind Chill: 45°   Ceiling: Unl
Heat Index: 48°   Visibility: 10mi
Dew Point: 34°   Wind: 7mph
Humidity: 57%   Direction: 20°NNE
Pressure: 30.11"   Gusts: NA
Location:  39.1386°N, 119.659°W
Report Text: KCXP 210015Z AUTO 02006KT 10SM SCT110 09/01 A3011 RMK AO2
Loading
Personal Weather Stations






























Interactive Weather Map New forecast layout! Learn more

10-Day Weather Forecast

Advertisements
Track Severe Weather on mobile